Time;durP1;ratioP1;P1;durP2;ratioP2;P2;SDS_P1;SDS_P2;PMS_P1;PMS_P2;Temp;Humidity;BMP_temperature;BMP_pressure;BME280_temperature;BME280_humidity;BME280_pressure;Samples;Min_cycle;Max_cycle;Signal;HPM_P1;HPM_P2
2021/10/16 00:00:19;;;;;;;24.07;3.10;;;;;;;10.07;82.15;101071.38;5057733;28;20544;-72
2021/10/16 00:02:44;;;;;;;21.73;2.93;;;;;;;9.99;82.23;101079.69;5075482;28;20230;-73
2021/10/16 00:05:10;;;;;;;20.93;3.20;;;;;;;10.09;81.79;101083.69;5057868;28;20710;-73
2021/10/16 00:07:35;;;;;;;15.20;3.03;;;;;;;10.16;81.26;101069.13;5040881;28;20255;-73
2021/10/16 00:10:00;;;;;;;21.30;2.93;;;;;;;10.13;81.92;101087.06;5057678;28;20702;-71
2021/10/16 00:12:26;;;;;;;13.53;2.80;;;;;;;10.17;81.65;101081.53;5075316;28;20202;-72
2021/10/16 00:14:52;;;;;;;14.77;2.87;;;;;;;10.23;80.83;101070.59;5075531;28;20202;-72
2021/10/16 00:17:17;;;;;;;18.00;2.90;;;;;;;10.33;81.10;101085.22;5057875;28;20600;-72
2021/10/16 00:19:42;;;;;;;15.03;2.67;;;;;;;10.31;80.34;101081.75;5057963;28;20645;-72
2021/10/16 00:22:08;;;;;;;17.03;2.90;;;;;;;10.31;80.90;101083.56;5057205;28;20187;-72
2021/10/16 00:24:33;;;;;;;11.73;2.77;;;;;;;10.41;81.04;101087.53;5057550;28;20175;-72
2021/10/16 00:26:59;;;;;;;18.43;3.10;;;;;;;10.33;81.12;101090.53;5057587;28;20167;-72
2021/10/16 00:29:24;;;;;;;14.43;2.73;;;;;;;10.22;80.75;101087.53;5057589;28;20205;-72
2021/10/16 00:31:49;;;;;;;19.73;2.87;;;;;;;10.22;81.00;101095.53;5057336;28;20175;-72
2021/10/16 00:34:15;;;;;;;20.83;3.00;;;;;;;10.32;80.96;101088.81;5075399;28;20163;-72
2021/10/16 00:36:41;;;;;;;14.67;3.03;;;;;;;10.20;81.62;101108.06;5074708;28;20578;-72
2021/10/16 00:39:06;;;;;;;21.70;3.67;;;;;;;10.29;81.46;101094.31;5074774;28;20187;-72
2021/10/16 00:41:31;;;;;;;16.53;3.00;;;;;;;10.15;81.79;101099.41;5056867;28;20187;-73
2021/10/16 00:44:18;;;;;;;11.87;2.93;;;;;;;10.28;81.57;101102.38;5056598;28;20205;-72
2021/10/16 00:46:44;;;;;;;13.53;3.10;;;;;;;10.05;81.62;101105.25;5057042;28;20569;-72
2021/10/16 00:49:09;;;;;;;13.30;2.70;;;;;;;9.91;82.52;101100.53;5040048;28;20228;-72
2021/10/16 00:51:35;;;;;;;15.23;3.50;;;;;;;9.78;82.67;101110.88;5074803;28;20175;-72
2021/10/16 00:54:01;;;;;;;16.83;2.63;;;;;;;9.75;82.82;101108.38;5074567;28;20544;-72
2021/10/16 00:56:27;;;;;;;17.37;2.87;;;;;;;9.80;82.83;101108.16;5056699;28;20175;-72
2021/10/16 00:58:53;;;;;;;17.03;2.80;;;;;;;9.76;83.03;101102.09;5056864;28;20167;-72
2021/10/16 01:01:18;;;;;;;25.50;3.97;;;;;;;9.60;83.42;101109.91;5056671;28;20301;-72
2021/10/16 01:03:44;;;;;;;17.57;2.80;;;;;;;9.64;83.59;101107.97;5056385;28;20202;-72
2021/10/16 01:06:09;;;;;;;16.87;3.40;;;;;;;9.63;83.54;101109.75;5074505;28;20521;-72
2021/10/16 01:08:34;;;;;;;23.60;4.20;;;;;;;9.57;83.63;101110.03;5083343;28;20223;-72
2021/10/16 01:11:00;;;;;;;15.37;2.67;;;;;;;9.58;83.69;101111.75;5064522;28;20186;-73
2021/10/16 01:13:27;;;;;;;18.63;3.00;;;;;;;9.64;83.44;101111.50;5055950;28;20206;-72
2021/10/16 01:15:52;;;;;;;19.33;3.27;;;;;;;9.70;83.29;101113.91;5056485;28;20198;-72
2021/10/16 01:18:19;;;;;;;18.17;3.07;;;;;;;9.63;83.67;101107.09;5057044;28;20171;-72
2021/10/16 01:20:47;;;;;;;17.50;2.80;;;;;;;9.58;84.04;101109.09;5074012;28;20175;-72
2021/10/16 01:23:13;;;;;;;20.20;3.60;;;;;;;9.58;83.59;101101.09;5056030;28;20249;-72
2021/10/16 01:25:39;;;;;;;20.33;2.70;;;;;;;9.58;83.95;101117.09;5073705;28;20249;-72
2021/10/16 01:28:05;;;;;;;15.23;2.77;;;;;;;9.65;84.04;101115.88;5056047;28;20243;-72
2021/10/16 01:30:30;;;;;;;17.80;2.80;;;;;;;9.58;83.17;101125.09;5056004;28;20171;-72
2021/10/16 01:32:55;;;;;;;14.67;2.53;;;;;;;9.54;83.56;101120.84;5055673;28;20244;-72
2021/10/16 01:35:21;;;;;;;18.73;3.13;;;;;;;9.50;83.87;101124.56;5061423;28;20205;-72
2021/10/16 01:37:48;;;;;;;15.07;2.93;;;;;;;9.55;83.83;101119.91;5079869;28;20178;-72
2021/10/16 01:40:14;;;;;;;15.97;2.90;;;;;;;9.56;83.71;101126.09;5061534;28;20175;-73
2021/10/16 01:42:42;;;;;;;16.57;2.63;;;;;;;9.64;83.53;101118.63;5061106;28;20197;-73
2021/10/16 01:45:13;;;;;;;17.73;3.17;;;;;;;9.72;84.00;101127.16;5076535;28;20667;-72
2021/10/16 01:48:08;;;;;;;11.47;2.40;;;;;;;9.74;83.21;101124.44;5057417;28;20159;-73
2021/10/16 01:50:41;;;;;;;12.93;3.03;;;;;;;9.60;83.81;101128.56;5043215;28;20645;-72
2021/10/16 01:53:08;;;;;;;15.40;3.07;;;;;;;9.48;83.64;101123.78;5056109;28;20286;-73
2021/10/16 01:55:33;;;;;;;14.97;2.83;;;;;;;9.50;84.16;101121.91;5074299;28;20689;-73
2021/10/16 01:58:06;;;;;;;25.63;3.10;;;;;;;9.56;84.20;101131.41;5074544;28;20182;-72
2021/10/16 02:00:31;;;;;;;16.93;2.60;;;;;;;9.43;84.60;101131.09;5045675;28;20180;-72
2021/10/16 02:02:56;;;;;;;12.80;2.97;;;;;;;9.39;84.19;101121.50;5079098;28;20683;-73
2021/10/16 02:05:22;;;;;;;23.60;2.90;;;;;;;9.27;84.73;101132.69;5055561;28;20656;-72
2021/10/16 02:07:47;;;;;;;15.20;2.40;;;;;;;9.47;83.92;101131.84;5073296;28;20171;-73
2021/10/16 02:10:12;;;;;;;11.10;2.50;;;;;;;9.45;84.40;101139.88;5055393;28;20258;-72
2021/10/16 02:12:38;;;;;;;10.77;2.13;;;;;;;9.66;83.43;101136.31;5073354;28;20579;-72
2021/10/16 02:15:03;;;;;;;13.30;2.97;;;;;;;9.59;83.44;101145.47;5055500;28;20249;-73
2021/10/16 02:17:29;;;;;;;17.47;2.50;;;;;;;9.64;83.19;101137.28;5073169;28;20631;-73
2021/10/16 02:19:54;;;;;;;14.57;2.70;;;;;;;9.73;83.11;101130.69;5073533;28;20174;-73
2021/10/16 02:22:19;;;;;;;17.30;2.60;;;;;;;9.82;82.86;101140.94;5072913;28;20191;-73
2021/10/16 02:24:45;;;;;;;22.17;3.23;;;;;;;9.77;82.84;101143.81;5072569;28;20633;-73
2021/10/16 02:27:10;;;;;;;19.37;2.90;;;;;;;9.63;83.24;101135.53;5073027;28;20664;-73
2021/10/16 02:29:35;;;;;;;15.00;3.07;;;;;;;9.81;82.97;101140.06;5055304;28;20175;-73
2021/10/16 02:32:00;;;;;;;11.57;2.47;;;;;;;9.75;83.27;101143.00;5072951;28;20208;-73
2021/10/16 02:34:26;;;;;;;14.47;2.80;;;;;;;9.66;83.39;101148.72;5073611;28;20628;-73
2021/10/16 02:36:51;;;;;;;13.97;2.80;;;;;;;9.73;82.80;101146.69;5073242;28;20176;-73
2021/10/16 02:39:16;;;;;;;14.33;3.10;;;;;;;9.61;83.38;101145.41;5073220;28;20669;-73
2021/10/16 02:41:42;;;;;;;15.93;2.60;;;;;;;9.51;83.55;101150.28;5072969;28;20652;-73
2021/10/16 02:44:07;;;;;;;16.00;2.73;;;;;;;9.58;83.52;101154.41;5073142;28;20167;-73
2021/10/16 02:46:32;;;;;;;16.07;2.67;;;;;;;9.43;83.52;101152.41;5038543;28;20268;-73
2021/10/16 02:48:57;;;;;;;10.63;2.70;;;;;;;9.45;84.20;101152.34;5073087;28;20202;-73
2021/10/16 02:51:23;;;;;;;22.03;3.43;;;;;;;9.41;84.18;101151.63;5075271;28;20205;-73
2021/10/16 02:53:48;;;;;;;18.00;3.37;;;;;;;9.33;84.09;101143.09;5078983;28;20664;-73
2021/10/16 02:56:13;;;;;;;15.27;3.00;;;;;;;9.32;84.26;101160.88;5079859;28;20203;-73
2021/10/16 02:58:39;;;;;;;19.33;4.03;;;;;;;9.23;84.22;101158.56;5079641;28;20190;-73
2021/10/16 03:01:04;;;;;;;11.60;2.23;;;;;;;9.30;84.11;101154.75;5062706;28;20637;-73
2021/10/16 03:03:29;;;;;;;13.33;2.70;;;;;;;9.20;84.94;101160.50;5076091;28;20187;-73
2021/10/16 03:05:55;;;;;;;13.87;2.30;;;;;;;9.14;84.31;101152.78;5074063;28;20195;-73
2021/10/16 03:08:20;;;;;;;16.17;3.03;;;;;;;9.20;84.60;101155.19;5074333;28;20193;-73
2021/10/16 03:10:48;;;;;;;17.33;3.13;;;;;;;9.12;84.70;101165.28;5074621;28;20191;-73
2021/10/16 03:13:14;;;;;;;11.17;2.10;;;;;;;9.17;84.50;101163.28;5073318;28;20198;-73
2021/10/16 03:15:39;;;;;;;14.07;2.70;;;;;;;9.11;84.56;101163.56;5072797;28;20199;-73
2021/10/16 03:18:04;;;;;;;17.83;2.67;;;;;;;9.19;84.49;101166.75;5072850;28;20664;-73
2021/10/16 03:20:29;;;;;;;17.87;2.67;;;;;;;9.09;84.77;101161.81;5054834;28;20171;-71
2021/10/16 03:22:55;;;;;;;15.40;2.97;;;;;;;9.22;84.34;101177.28;5055233;28;20282;-73
2021/10/16 03:25:20;;;;;;;14.27;2.60;;;;;;;9.28;83.88;101167.22;5055571;28;20175;-73
2021/10/16 03:27:45;;;;;;;18.77;2.40;;;;;;;9.25;83.52;101174.50;5075035;28;20260;-73
2021/10/16 03:30:11;;;;;;;18.57;2.50;;;;;;;9.38;83.13;101167.75;5056467;28;20205;-72
2021/10/16 03:32:36;;;;;;;11.20;2.37;;;;;;;9.38;82.50;101170.41;5072521;28;20198;-73
2021/10/16 03:35:02;;;;;;;10.43;2.90;;;;;;;9.43;83.14;101173.72;5072675;28;20260;-73
2021/10/16 03:37:27;;;;;;;12.20;2.70;;;;;;;9.41;83.01;101175.59;5057137;28;20648;-73
2021/10/16 03:39:52;;;;;;;18.23;3.37;;;;;;;9.38;82.78;101178.41;5076390;28;20175;-73
2021/10/16 03:42:18;;;;;;;12.37;2.50;;;;;;;9.56;83.01;101172.25;5076267;28;20194;-72
2021/10/16 03:44:43;;;;;;;15.20;2.10;;;;;;;9.51;82.40;101171.59;5058196;28;20167;-73
2021/10/16 03:47:08;;;;;;;16.90;3.43;;;;;;;9.52;82.48;101175.13;5057967;28;20531;-73
2021/10/16 03:49:33;;;;;;;14.80;2.90;;;;;;;9.53;82.44;101177.72;5075998;28;20167;-73
2021/10/16 03:51:59;;;;;;;12.20;2.47;;;;;;;9.41;82.99;101180.94;5075612;28;20191;-73
2021/10/16 03:54:24;;;;;;;17.53;3.33;;;;;;;9.42;82.66;101177.31;5058201;28;20198;-73
2021/10/16 03:56:49;;;;;;;11.50;2.80;;;;;;;9.44;82.43;101180.78;5075482;28;20179;-72
2021/10/16 03:59:15;;;;;;;13.17;2.10;;;;;;;9.52;82.20;101181.31;5075926;28;20526;-73
2021/10/16 04:01:40;;;;;;;12.97;2.40;;;;;;;9.41;82.34;101186.25;5075794;28;20220;-73
2021/10/16 04:04:05;;;;;;;13.50;2.20;;;;;;;9.38;82.38;101189.91;5075638;28;20179;-72
2021/10/16 04:06:31;;;;;;;17.10;2.83;;;;;;;9.31;82.72;101182.25;5058051;28;20182;-72
2021/10/16 04:08:56;;;;;;;13.33;2.93;;;;;;;9.38;81.93;101191.72;5057562;28;20179;-72
2021/10/16 04:11:21;;;;;;;15.90;2.60;;;;;;;9.30;82.77;101186.72;5075335;28;20181;-72
2021/10/16 04:13:46;;;;;;;12.13;2.43;;;;;;;9.22;82.66;101187.94;5057073;28;20199;-72
2021/10/16 04:16:12;;;;;;;11.83;2.33;;;;;;;9.27;82.35;101183.28;5057793;28;20209;-72
2021/10/16 04:18:37;;;;;;;11.23;2.47;;;;;;;9.13;83.41;101185.66;5075392;28;20595;-73
2021/10/16 04:21:02;;;;;;;13.10;2.70;;;;;;;9.25;83.05;101191.34;5057249;28;20175;-73
2021/10/16 04:23:28;;;;;;;16.37;3.37;;;;;;;9.15;83.25;101191.78;5057320;28;20273;-73
2021/10/16 04:25:53;;;;;;;14.80;2.47;;;;;;;9.22;83.34;101187.94;5057676;28;20193;-73
2021/10/16 04:28:18;;;;;;;11.57;2.23;;;;;;;9.19;83.13;101183.59;5075016;28;20175;-73
2021/10/16 04:30:43;;;;;;;12.23;2.33;;;;;;;9.28;82.98;101187.69;5057034;28;20171;-73
2021/10/16 04:33:09;;;;;;;13.63;3.27;;;;;;;9.31;82.94;101192.91;5056863;28;20229;-73
2021/10/16 04:35:35;;;;;;;11.43;2.20;;;;;;;9.40;82.59;101182.72;5057009;28;20199;-73
2021/10/16 04:38:00;;;;;;;13.33;2.20;;;;;;;9.50;82.85;101187.66;5057217;28;20170;-73
2021/10/16 04:40:26;;;;;;;10.80;2.30;;;;;;;9.73;81.52;101197.34;5074929;28;20185;-72
2021/10/16 04:42:53;;;;;;;9.80;2.23;;;;;;;9.68;82.23;101194.88;5074889;28;20277;-72
2021/10/16 04:45:21;;;;;;;11.27;2.00;;;;;;;9.54;82.43;101203.44;5074837;28;20540;-72
2021/10/16 04:47:46;;;;;;;12.97;2.57;;;;;;;9.47;82.59;101201.09;5055985;28;20175;-72
2021/10/16 04:50:12;;;;;;;13.83;2.60;;;;;;;9.50;83.09;101200.97;5056773;28;20182;-73
2021/10/16 04:52:37;;;;;;;8.73;1.90;;;;;;;9.55;82.70;101198.97;5056662;28;20205;-72
2021/10/16 04:55:04;;;;;;;13.90;2.63;;;;;;;9.60;82.76;101203.16;5056918;28;20296;-71
2021/10/16 04:57:29;;;;;;;14.80;2.57;;;;;;;9.60;83.52;101205.84;5074521;28;20183;-72
2021/10/16 04:59:54;;;;;;;11.10;2.33;;;;;;;9.53;83.49;101199.03;5056461;28;20202;-74
2021/10/16 05:02:20;;;;;;;10.60;2.17;;;;;;;9.68;82.59;101206.41;5057056;28;20244;-73
2021/10/16 05:04:45;;;;;;;12.63;2.93;;;;;;;9.63;83.61;101207.50;5056404;28;20675;-73
2021/10/16 05:07:10;;;;;;;14.87;2.57;;;;;;;9.71;83.03;101205.41;5074699;28;20193;-73
2021/10/16 05:09:36;;;;;;;14.33;3.17;;;;;;;9.67;82.75;101210.00;5056414;28;20656;-73
2021/10/16 05:12:01;;;;;;;13.13;2.70;;;;;;;9.73;82.76;101210.66;5056177;28;20730;-72
2021/10/16 05:14:26;;;;;;;13.40;2.30;;;;;;;9.66;83.11;101212.69;5056098;28;20186;-73
2021/10/16 05:16:52;;;;;;;9.27;2.30;;;;;;;9.64;83.16;101215.44;5056177;28;20229;-72
2021/10/16 05:19:17;;;;;;;12.17;2.17;;;;;;;9.67;82.78;101215.31;5074150;28;20182;-73
2021/10/16 05:21:42;;;;;;;14.00;2.13;;;;;;;9.62;84.09;101222.63;5073784;28;20186;-73
2021/10/16 05:24:08;;;;;;;12.13;2.27;;;;;;;9.51;84.25;101221.34;5056314;28;20175;-73
2021/10/16 05:26:34;;;;;;;14.10;2.23;;;;;;;9.61;83.91;101231.56;5074249;28;20171;-73
2021/10/16 05:28:59;;;;;;;10.47;2.40;;;;;;;9.48;84.22;101225.03;5039356;28;20554;-71
2021/10/16 05:31:24;;;;;;;10.60;2.43;;;;;;;9.36;84.77;101222.88;5074301;28;20187;-72
2021/10/16 05:33:50;;;;;;;16.57;2.93;;;;;;;9.50;84.50;101225.81;5057293;28;20207;-72
2021/10/16 05:36:15;;;;;;;11.97;2.43;;;;;;;9.44;84.25;101220.75;5056495;28;20211;-72
2021/10/16 05:38:40;;;;;;;12.13;2.40;;;;;;;9.41;84.44;101223.56;5073739;28;20183;-73
2021/10/16 05:41:06;;;;;;;18.17;2.63;;;;;;;9.35;84.75;101232.66;5074453;28;20186;-73
2021/10/16 05:43:31;;;;;;;12.23;2.60;;;;;;;9.41;84.50;101223.56;5073803;28;20537;-73
2021/10/16 05:45:56;;;;;;;10.67;2.27;;;;;;;9.50;84.42;101228.47;5055574;28;20171;-73
2021/10/16 05:48:22;;;;;;;15.17;2.63;;;;;;;9.37;84.65;101224.59;5073427;28;20167;-73
2021/10/16 05:50:47;;;;;;;12.90;2.67;;;;;;;9.25;84.45;101223.31;5073566;28;20170;-73
2021/10/16 05:53:12;;;;;;;19.37;3.10;;;;;;;9.31;85.05;101230.19;5055581;28;20207;-72
2021/10/16 05:55:38;;;;;;;14.90;2.63;;;;;;;9.40;84.66;101230.69;5073435;28;20297;-72
2021/10/16 05:58:03;;;;;;;10.60;2.30;;;;;;;9.51;83.53;101237.34;5055572;28;20549;-72
2021/10/16 06:00:28;;;;;;;14.10;3.00;;;;;;;9.65;83.29;101245.59;5073532;28;20179;-72
2021/10/16 06:02:53;;;;;;;13.20;3.93;;;;;;;9.58;82.82;101234.34;5056733;28;20195;-71
2021/10/16 06:05:19;;;;;;;12.70;3.17;;;;;;;9.71;83.64;101246.25;5056824;28;20174;-72
2021/10/16 06:07:44;;;;;;;14.03;3.50;;;;;;;9.66;83.56;101252.66;5056161;28;20179;-72
2021/10/16 06:10:10;;;;;;;12.57;2.77;;;;;;;9.59;83.41;101253.88;5073771;28;20186;-73
2021/10/16 06:12:35;;;;;;;11.03;2.17;;;;;;;9.73;83.77;101258.63;5073921;28;20191;-74
2021/10/16 06:15:00;;;;;;;10.77;2.73;;;;;;;9.78;83.32;101248.63;5055608;28;20205;-72
2021/10/16 06:17:26;;;;;;;11.70;2.83;;;;;;;9.87;83.55;101258.91;5038727;28;20191;-72
2021/10/16 06:19:52;;;;;;;10.13;2.60;;;;;;;9.68;84.17;101262.38;5073849;28;20186;-72
2021/10/16 06:22:17;;;;;;;14.23;2.93;;;;;;;9.71;83.52;101270.22;5073318;28;20198;-72
2021/10/16 06:24:42;;;;;;;14.27;2.40;;;;;;;9.66;83.80;101264.22;5055268;28;20178;-72
2021/10/16 06:27:08;;;;;;;12.50;2.30;;;;;;;9.81;83.55;101268.03;5073242;28;20171;-72
2021/10/16 06:29:33;;;;;;;14.23;2.50;;;;;;;9.80;83.63;101271.63;5073299;28;20186;-74
2021/10/16 06:31:58;;;;;;;13.70;2.83;;;;;;;9.85;83.40;101274.09;5073225;28;20263;-71
2021/10/16 06:34:24;;;;;;;11.80;2.60;;;;;;;9.70;83.53;101284.50;5055225;28;20173;-71
2021/10/16 06:36:49;;;;;;;13.73;2.57;;;;;;;9.88;83.46;101279.28;5055099;28;20179;-72
2021/10/16 06:39:14;;;;;;;12.87;2.83;;;;;;;9.82;84.44;101285.75;5073011;28;20175;-73
2021/10/16 06:41:39;;;;;;;14.93;2.80;;;;;;;9.73;84.38;101285.28;5072775;28;20177;-73
2021/10/16 06:44:05;;;;;;;15.87;3.27;;;;;;;9.68;84.90;101288.16;5055237;28;20183;-71
2021/10/16 06:46:30;;;;;;;10.67;2.33;;;;;;;9.71;84.50;101288.88;5055391;28;20171;-72
2021/10/16 06:48:55;;;;;;;11.67;2.47;;;;;;;9.81;84.55;101284.03;5073333;28;20183;-73
2021/10/16 06:51:21;;;;;;;15.40;3.73;;;;;;;10.01;83.87;101291.16;5072993;28;20719;-73
2021/10/16 06:53:46;;;;;;;12.80;2.43;;;;;;;9.95;84.15;101294.97;5054832;28;20194;-72
2021/10/16 06:56:11;;;;;;;12.93;2.47;;;;;;;10.20;83.36;101297.47;5072735;28;20220;-72
2021/10/16 06:58:37;;;;;;;14.80;3.20;;;;;;;10.27;83.23;101298.94;5054912;28;20178;-73
2021/10/16 07:01:02;;;;;;;20.80;3.60;;;;;;;10.60;82.18;101301.03;5072678;28;20189;-72
2021/10/16 07:03:28;;;;;;;12.50;3.83;;;;;;;10.56;81.44;101313.66;5072856;28;20220;-72
2021/10/16 07:05:53;;;;;;;12.27;2.63;;;;;;;10.69;81.41;101295.25;5055015;28;20171;-72
2021/10/16 07:08:19;;;;;;;12.07;3.30;;;;;;;10.83;80.94;101314.19;5054957;28;20220;-73
2021/10/16 07:10:44;;;;;;;13.43;3.07;;;;;;;10.74;81.90;101311.94;5072839;28;20207;-72
2021/10/16 07:13:10;;;;;;;8.43;2.63;;;;;;;10.61;81.88;101316.97;5076254;28;20205;-72
2021/10/16 07:15:36;;;;;;;15.67;2.57;;;;;;;10.98;81.43;101315.28;5076260;28;20210;-73
2021/10/16 07:18:01;;;;;;;9.37;2.40;;;;;;;10.77;81.78;101308.25;5058437;28;20174;-72
2021/10/16 07:20:26;;;;;;;11.53;2.87;;;;;;;11.03;79.77;101307.03;5076516;28;20186;-72
2021/10/16 07:22:52;;;;;;;10.17;2.63;;;;;;;11.16;80.25;101308.22;5058717;28;20194;-73
2021/10/16 07:25:17;;;;;;;10.87;2.30;;;;;;;11.33;79.47;101313.59;5041877;28;20661;-72
2021/10/16 07:27:42;;;;;;;14.80;2.40;;;;;;;11.17;79.38;101308.13;5076312;28;20251;-72
2021/10/16 07:30:08;;;;;;;10.43;2.57;;;;;;;11.33;79.11;101308.25;5076538;28;20177;-72
2021/10/16 07:32:34;;;;;;;11.97;2.80;;;;;;;11.40;79.07;101311.50;5058827;28;20216;-73
2021/10/16 07:34:59;;;;;;;10.30;2.67;;;;;;;11.10;79.66;101309.34;5058536;28;20209;-73
2021/10/16 07:37:24;;;;;;;10.70;2.37;;;;;;;11.19;80.04;101316.06;5076103;28;20172;-73
2021/10/16 07:39:49;;;;;;;11.43;2.57;;;;;;;11.30;80.49;101318.22;5076469;28;20599;-73
2021/10/16 07:42:15;;;;;;;17.90;2.90;;;;;;;11.44;79.83;101327.28;5058501;28;20194;-72
2021/10/16 07:44:40;;;;;;;15.93;3.33;;;;;;;11.22;79.13;101299.91;5076259;28;20178;-72
2021/10/16 07:47:05;;;;;;;9.87;2.80;;;;;;;11.66;79.37;101324.44;5076238;28;20193;-72
2021/10/16 07:49:31;;;;;;;13.77;3.00;;;;;;;11.53;78.93;101332.22;5076015;28;20177;-72
2021/10/16 07:51:56;;;;;;;10.40;2.80;;;;;;;11.70;78.93;101333.19;5058291;28;20198;-73
2021/10/16 07:54:21;;;;;;;15.20;2.97;;;;;;;11.84;77.88;101336.06;5076846;28;20230;-73
2021/10/16 07:56:47;;;;;;;13.77;3.90;;;;;;;12.03;76.65;101342.22;5060358;28;20253;-72
2021/10/16 07:59:12;;;;;;;12.70;3.90;;;;;;;12.05;76.36;101342.16;5044849;28;20177;-73
2021/10/16 08:01:38;;;;;;;14.60;2.40;;;;;;;12.11;76.52;101345.38;5080096;28;20264;-73
2021/10/16 08:04:03;;;;;;;10.10;2.53;;;;;;;12.32;76.08;101348.75;5079623;28;20181;-73
2021/10/16 08:06:29;;;;;;;15.13;3.10;;;;;;;12.41;75.00;101342.91;5077599;28;20177;-73
2021/10/16 08:08:54;;;;;;;9.47;2.20;;;;;;;12.32;75.38;101345.22;5058257;28;20635;-72
2021/10/16 08:11:19;;;;;;;11.53;3.17;;;;;;;11.94;75.70;101340.03;5075960;28;20175;-71
2021/10/16 08:13:44;;;;;;;13.20;2.40;;;;;;;12.23;75.10;101345.66;5075682;28;20191;-72
2021/10/16 08:16:10;;;;;;;10.13;2.00;;;;;;;11.88;76.17;101335.81;5075466;28;20194;-72
2021/10/16 08:18:35;;;;;;;12.17;2.53;;;;;;;11.68;76.44;101349.31;5075493;28;20182;-71
2021/10/16 08:21:00;;;;;;;13.77;2.27;;;;;;;11.99;76.20;101343.31;5058764;28;20178;-73
2021/10/16 08:23:26;;;;;;;7.50;2.17;;;;;;;11.86;75.89;101337.72;5075621;28;20210;-73
2021/10/16 08:25:51;;;;;;;9.83;2.10;;;;;;;12.07;75.18;101343.78;5075366;28;20170;-72
2021/10/16 08:28:16;;;;;;;8.17;2.50;;;;;;;12.11;74.94;101345.38;5075517;28;20201;-72
2021/10/16 08:30:49;;;;;;;15.03;2.67;;;;;;;12.48;74.97;101355.03;5057257;28;20304;-72
2021/10/16 08:33:15;;;;;;;13.50;3.47;;;;;;;12.28;74.51;101351.69;5057686;28;20206;-72
2021/10/16 08:35:40;;;;;;;10.77;2.33;;;;;;;12.10;74.46;101346.31;5056203;28;20204;-72
2021/10/16 08:38:05;;;;;;;13.60;3.10;;;;;;;12.19;74.43;101363.69;5074226;28;20232;-72
2021/10/16 08:40:31;;;;;;;9.57;2.37;;;;;;;12.52;73.63;101361.09;5057926;28;20182;-72
2021/10/16 08:42:56;;;;;;;12.73;2.60;;;;;;;12.41;73.56;101358.13;5074724;28;20636;-72
2021/10/16 08:45:21;;;;;;;13.50;2.67;;;;;;;12.49;73.73;101355.91;5039839;28;20170;-72
2021/10/16 08:47:47;;;;;;;11.63;2.73;;;;;;;12.53;73.49;101352.97;5056504;28;20174;-72
2021/10/16 08:50:13;;;;;;;10.03;2.63;;;;;;;12.37;72.57;101340.50;5055922;28;20285;-72
2021/10/16 08:52:39;;;;;;;13.83;2.90;;;;;;;12.63;72.49;101339.97;5055707;28;20194;-72
2021/10/16 08:55:06;;;;;;;9.73;2.50;;;;;;;12.65;72.25;101340.78;5073668;28;20280;-72
2021/10/16 08:57:38;;;;;;;12.03;2.30;;;;;;;12.42;73.00;101339.28;5073417;28;20229;-72
2021/10/16 09:00:35;;;;;;;15.97;2.40;;;;;;;12.34;72.65;101344.19;5073504;28;20171;-72
2021/10/16 09:03:23;;;;;;;9.00;1.93;;;;;;;12.62;72.32;101353.44;5055580;28;20194;-73
2021/10/16 09:06:01;;;;;;;5.83;1.97;;;;;;;12.49;71.81;101351.41;5074079;28;20155;-73
2021/10/16 09:08:28;;;;;;;9.37;2.13;;;;;;;12.56;72.37;101345.72;5073568;28;20183;-73
2021/10/16 09:11:10;;;;;;;7.33;2.67;;;;;;;12.71;71.74;101351.16;5073654;28;20663;-72
2021/10/16 09:13:44;;;;;;;10.20;2.37;;;;;;;12.87;71.30;101350.31;5073438;28;20676;-73
2021/10/16 09:16:22;;;;;;;10.23;2.13;;;;;;;12.68;71.13;101354.00;5073157;28;20694;-73
2021/10/16 09:18:53;;;;;;;7.00;1.90;;;;;;;12.67;71.28;101362.97;5073766;28;20648;-72
2021/10/16 09:21:20;;;;;;;12.77;4.50;;;;;;;12.90;71.06;101363.53;5073803;28;20166;-73
2021/10/16 09:23:45;;;;;;;9.47;1.87;;;;;;;12.90;70.89;101369.75;5073484;28;20191;-72
2021/10/16 09:26:12;;;;;;;9.57;2.13;;;;;;;12.91;70.55;101351.88;5074002;28;20171;-72
2021/10/16 09:28:38;;;;;;;10.43;2.23;;;;;;;13.44;69.63;101354.31;5055316;28;20239;-72
2021/10/16 09:31:10;;;;;;;12.73;1.90;;;;;;;13.62;68.93;101355.06;5073102;28;20656;-72
2021/10/16 09:33:46;;;;;;;12.67;2.47;;;;;;;13.22;69.29;101354.63;5039148;28;981564;-72
2021/10/16 09:36:24;;;;;;;11.77;2.57;;;;;;;13.57;68.90;101370.56;5073874;28;20580;-73
2021/10/16 09:38:50;;;;;;;7.80;2.60;;;;;;;13.31;69.38;101353.25;5055735;28;20545;-72
2021/10/16 09:41:37;;;;;;;10.57;3.77;;;;;;;13.48;68.72;101358.53;5056090;28;20183;-72
2021/10/16 09:44:26;;;;;;;7.80;2.33;;;;;;;13.30;68.46;101357.75;5073956;28;20167;-72
2021/10/16 09:47:02;;;;;;;9.93;2.23;;;;;;;13.43;68.35;101357.94;5055753;28;20190;-72
2021/10/16 09:49:36;;;;;;;7.37;2.90;;;;;;;13.73;67.71;101364.22;5056709;28;20182;-72
2021/10/16 09:52:07;;;;;;;11.20;2.47;;;;;;;13.77;67.35;101357.75;5073598;28;20198;-72
2021/10/16 09:54:34;;;;;;;8.43;2.27;;;;;;;13.64;67.21;101362.06;5055940;28;20253;-72
2021/10/16 09:57:02;;;;;;;7.57;2.33;;;;;;;13.76;67.10;101347.09;5055971;28;20174;-72
2021/10/16 09:59:28;;;;;;;12.20;3.30;;;;;;;13.81;67.05;101344.16;5055577;28;20178;-72
2021/10/16 10:01:54;;;;;;;11.53;4.17;;;;;;;14.06;66.71;101361.38;5055965;28;20186;-72
2021/10/16 10:04:22;;;;;;;8.73;3.63;;;;;;;14.33;66.30;101366.06;5055700;28;20591;-72
2021/10/16 10:06:48;;;;;;;7.37;2.80;;;;;;;14.07;65.99;101352.38;5073628;28;20517;-72
2021/10/16 10:09:14;;;;;;;18.93;7.27;;;;;;;14.40;66.42;101372.81;5057124;28;20193;-73
2021/10/16 10:11:40;;;;;;;9.23;3.07;;;;;;;13.78;66.44;101339.84;5062571;28;20581;-72
2021/10/16 10:14:05;;;;;;;10.07;2.20;;;;;;;13.56;66.75;101352.75;5065321;28;20261;-72
2021/10/16 10:16:31;;;;;;;10.00;2.47;;;;;;;13.50;67.02;101358.47;5078240;28;20265;-73
2021/10/16 10:18:59;;;;;;;9.20;2.27;;;;;;;13.91;66.55;101348.88;5062523;28;20171;-73
2021/10/16 10:21:38;;;;;;;10.00;3.13;;;;;;;14.54;65.67;101361.28;5060110;28;20178;-73
2021/10/16 10:24:05;;;;;;;12.27;4.43;;;;;;;14.99;64.44;101368.31;5055207;28;20167;-73
2021/10/16 10:26:31;;;;;;;9.23;3.13;;;;;;;14.75;65.17;101364.44;5055010;28;20247;-73
2021/10/16 10:29:02;;;;;;;10.30;2.37;;;;;;;14.73;63.93;101352.94;5073039;28;20183;-73
2021/10/16 10:31:45;;;;;;;8.97;2.27;;;;;;;15.60;63.26;101367.09;5055064;28;20159;-73
2021/10/16 10:34:13;;;;;;;14.90;2.53;;;;;;;15.71;62.32;101359.19;5073554;28;20167;-72
2021/10/16 10:36:56;;;;;;;5.30;1.80;;;;;;;15.42;61.98;101350.28;5056534;28;20202;-73
2021/10/16 10:39:40;;;;;;;10.00;1.90;;;;;;;16.03;60.92;101354.34;5055653;28;20625;-73
2021/10/16 10:42:08;;;;;;;5.20;2.07;;;;;;;16.07;60.99;101352.31;5056213;28;20652;-73
2021/10/16 10:44:47;;;;;;;7.93;2.73;;;;;;;15.76;60.32;101337.34;5074026;28;20167;-74
2021/10/16 10:47:35;;;;;;;8.97;2.10;;;;;;;15.39;61.62;101330.81;5059194;28;20181;-73
2021/10/16 10:50:06;;;;;;;10.13;2.40;;;;;;;15.47;61.86;101331.16;5077399;28;20232;-74
2021/10/16 10:52:56;;;;;;;9.70;2.80;;;;;;;15.45;61.83;101333.09;5059050;28;20273;-72
2021/10/16 10:55:22;;;;;;;6.77;2.27;;;;;;;15.06;61.44;101336.53;5059164;28;20198;-73
2021/10/16 10:57:58;;;;;;;6.20;1.70;;;;;;;14.81;61.37;101326.44;5059434;28;20241;-72
2021/10/16 11:00:31;;;;;;;7.60;1.90;;;;;;;14.69;61.91;101315.50;5059927;28;20166;-73
2021/10/16 11:02:56;;;;;;;6.30;1.47;;;;;;;14.95;61.07;101329.16;5077493;28;20205;-73
2021/10/16 11:05:46;;;;;;;7.33;2.20;;;;;;;15.14;61.06;101318.94;5059555;28;20179;-73
2021/10/16 11:08:14;;;;;;;4.90;1.50;;;;;;;15.36;60.70;101326.50;5078247;28;20224;-73
2021/10/16 11:10:40;;;;;;;6.43;1.83;;;;;;;15.65;59.96;101321.94;5060560;28;20232;-73
2021/10/16 11:13:17;;;;;;;7.83;1.63;;;;;;;15.77;58.66;101299.56;5076835;28;20187;-73
2021/10/16 11:15:44;;;;;;;7.90;1.97;;;;;;;15.59;59.60;101317.78;5076729;28;20198;-73
2021/10/16 11:18:11;;;;;;;4.47;1.53;;;;;;;15.39;59.28;101306.59;5059186;28;20546;-74
2021/10/16 11:20:36;;;;;;;3.90;1.63;;;;;;;16.15;57.96;101312.25;5059241;28;20854;-74